createdAt,value
2022-08-11T00:02:31.017Z,97412.19
2022-08-11T00:05:04.767Z,97414.34
2022-08-11T00:07:32.386Z,97409.47
2022-08-11T00:10:02.439Z,97412.22
2022-08-11T00:12:30.912Z,97419.47
2022-08-11T00:15:01.331Z,97419.00
2022-08-11T00:17:31.002Z,97416.25
2022-08-11T00:20:11.786Z,97413.63
2022-08-11T00:22:44.272Z,97419.69
2022-08-11T00:25:17.683Z,97423.31
2022-08-11T00:27:46.770Z,97420.22
2022-08-11T00:30:14.844Z,97410.53
2022-08-11T00:32:45.162Z,97415.66
2022-08-11T00:35:55.548Z,97412.78
2022-08-11T00:38:04.130Z,97408.63
2022-08-11T00:40:38.818Z,97409.91
2022-08-11T00:43:20.204Z,97405.63
2022-08-11T00:46:10.879Z,97404.19
2022-08-11T00:48:49.598Z,97404.19
2022-08-11T00:51:26.807Z,97401.81
2022-08-11T00:54:33.123Z,97391.78
2022-08-11T00:57:37.679Z,97398.16
2022-08-11T01:00:22.850Z,97393.28
2022-08-11T01:03:15.887Z,97397.69
2022-08-11T01:06:07.949Z,97395.06
2022-08-11T01:09:17.808Z,97390.19
2022-08-11T01:12:07.045Z,97386.00
2022-08-11T01:15:09.423Z,97390.63
2022-08-11T01:18:16.674Z,97390.53
2022-08-11T01:21:10.599Z,97389.41
2022-08-11T01:24:21.431Z,97394.06
2022-08-11T01:27:19.076Z,97389.03
2022-08-11T01:30:20.155Z,97390.94
2022-08-11T01:33:25.456Z,97387.34
2022-08-11T01:36:27.001Z,97393.69
2022-08-11T01:39:28.687Z,97392.81
2022-08-11T01:42:20.657Z,97393.81
2022-08-11T01:45:12.477Z,97386.75
2022-08-11T01:47:52.560Z,97387.81
2022-08-11T01:50:55.009Z,97394.47
2022-08-11T01:53:34.710Z,97400.53
2022-08-11T01:56:17.945Z,97376.16
2022-08-11T01:58:55.044Z,97379.00
2022-08-11T02:01:39.179Z,97370.16
2022-08-11T02:04:20.470Z,97374.34
2022-08-11T02:06:54.107Z,97371.97
2022-08-11T02:09:35.064Z,97380.75
2022-08-11T02:12:15.676Z,97374.56
2022-08-11T02:15:04.373Z,97374.09
2022-08-11T02:17:54.831Z,97375.13
2022-08-11T02:20:28.318Z,97375.25
2022-08-11T02:23:02.274Z,97371.19
2022-08-11T02:25:39.401Z,97369.97
2022-08-11T02:28:13.920Z,97373.31
2022-08-11T02:30:53.492Z,97363.28
2022-08-11T02:33:27.709Z,97369.69
2022-08-11T02:36:08.406Z,97379.56
2022-08-11T02:38:42.223Z,97379.66
2022-08-11T02:41:17.743Z,97383.22
2022-08-11T02:43:58.316Z,97385.22
2022-08-11T02:46:33.156Z,97382.84
2022-08-11T02:49:12.630Z,97378.03
2022-08-11T02:51:52.177Z,97379.19
2022-08-11T02:54:29.406Z,97388.94
2022-08-11T02:57:11.267Z,97389.06
2022-08-11T02:59:48.466Z,97398.09
2022-08-11T03:02:26.876Z,97392.31
2022-08-11T03:05:16.116Z,97387.19
2022-08-11T03:07:56.278Z,97390.25
2022-08-11T03:10:28.603Z,97380.00
2022-08-11T03:13:05.086Z,97382.72
2022-08-11T03:15:44.620Z,97389.94
2022-08-11T03:18:23.357Z,97389.94
2022-08-11T03:21:04.867Z,97397.78
2022-08-11T03:23:40.296Z,97397.88
2022-08-11T03:26:14.530Z,97400.50
2022-08-11T03:29:00.361Z,97409.72
2022-08-11T03:31:32.983Z,97411.31
2022-08-11T03:34:07.075Z,97404.72
2022-08-11T03:37:16.592Z,97418.41
2022-08-11T03:40:14.285Z,97405.53
2022-08-11T03:42:50.718Z,97421.44
2022-08-11T03:45:28.809Z,97422.31
2022-08-11T03:48:13.891Z,97422.19
2022-08-11T03:51:07.280Z,97429.72
2022-08-11T03:53:56.549Z,97423.41
2022-08-11T03:57:04.834Z,97429.28
2022-08-11T04:00:14.600Z,97435.91
2022-08-11T04:03:15.888Z,97423.84
2022-08-11T04:06:21.900Z,97428.66
2022-08-11T04:09:34.495Z,97433.59
2022-08-11T04:12:35.202Z,97413.19
2022-08-11T04:15:38.058Z,97422.91
2022-08-11T04:18:39.816Z,97421.22
2022-08-11T04:21:37.549Z,97426.56
2022-08-11T04:24:52.529Z,97421.25
2022-08-11T04:27:37.357Z,97423.03
2022-08-11T04:30:12.191Z,97427.63
2022-08-11T04:33:29.435Z,97426.16
2022-08-11T04:36:24.423Z,97425.75
2022-08-11T04:39:11.720Z,97433.38
2022-08-11T04:42:31.557Z,97429.72
2022-08-11T04:45:37.418Z,97436.94
2022-08-11T04:48:25.091Z,97440.78
2022-08-11T04:51:23.359Z,97435.31
2022-08-11T04:54:07.205Z,97449.78
2022-08-11T04:56:36.947Z,97435.03
2022-08-11T04:59:49.120Z,97430.53
2022-08-11T05:02:51.648Z,97439.44
2022-08-11T05:05:28.962Z,97431.38
2022-08-11T05:08:30.541Z,97427.28
2022-08-11T05:11:12.233Z,97431.03
2022-08-11T05:13:46.045Z,97426.19
2022-08-11T05:16:21.022Z,97425.53
2022-08-11T05:18:52.047Z,97418.22
2022-08-11T05:21:25.254Z,97414.06
2022-08-11T05:23:58.869Z,97417.44
2022-08-11T05:26:47.574Z,97434.25
2022-08-11T05:29:44.137Z,97420.47
2022-08-11T05:32:17.450Z,97420.78
2022-08-11T05:34:49.372Z,97415.81
2022-08-11T05:37:27.075Z,97425.00
2022-08-11T05:40:01.100Z,97419.06
2022-08-11T05:42:30.237Z,97421.22
2022-08-11T05:45:01.538Z,97407.53
2022-08-11T05:47:31.101Z,97414.00
2022-08-11T05:49:58.587Z,97405.72
2022-08-11T05:52:41.793Z,97407.75
2022-08-11T05:55:10.866Z,97420.28
2022-08-11T05:57:51.403Z,97425.66
2022-08-11T06:00:20.130Z,97421.03
2022-08-11T06:03:05.832Z,97425.19
2022-08-11T06:05:38.177Z,97428.91
2022-08-11T06:08:13.254Z,97422.13
2022-08-11T06:10:45.582Z,97428.28
2022-08-11T06:13:18.396Z,97416.50
2022-08-11T06:15:48.259Z,97425.44
2022-08-11T06:18:17.411Z,97417.66
2022-08-11T06:20:49.467Z,97422.06
2022-08-11T06:23:18.212Z,97411.78
2022-08-11T06:25:47.037Z,97410.94
2022-08-11T06:28:20.636Z,97419.63
2022-08-11T06:30:49.228Z,97413.78
2022-08-11T06:33:22.096Z,97416.59
2022-08-11T06:36:04.171Z,97418.34
2022-08-11T06:38:47.572Z,97426.16
2022-08-11T06:41:23.134Z,97417.41
2022-08-11T06:43:55.907Z,97419.13
2022-08-11T06:46:29.905Z,97418.25
2022-08-11T06:49:04.770Z,97422.03
2022-08-11T06:51:34.611Z,97418.53
2022-08-11T06:54:05.673Z,97421.63
2022-08-11T06:56:37.090Z,97412.13
2022-08-11T06:59:04.865Z,97412.75
2022-08-11T07:01:42.385Z,97411.41
2022-08-11T07:04:30.003Z,97404.13
2022-08-11T07:07:18.476Z,97410.41
2022-08-11T07:10:13.041Z,97408.50
2022-08-11T07:12:43.656Z,97413.13
2022-08-11T07:15:12.694Z,97407.97
2022-08-11T07:17:45.775Z,97408.81
2022-08-11T07:20:19.397Z,97405.50
2022-08-11T07:22:54.196Z,97414.66
2022-08-11T07:25:23.927Z,97413.81
2022-08-11T07:28:00.551Z,97397.13
2022-08-11T07:30:28.221Z,97401.28
2022-08-11T07:32:58.643Z,97403.34
2022-08-11T07:35:33.269Z,97408.63
2022-08-11T07:38:07.147Z,97404.31
2022-08-11T07:40:36.407Z,97401.78
2022-08-11T07:43:06.092Z,97400.25
2022-08-11T07:45:37.587Z,97392.13
2022-08-11T07:48:07.845Z,97400.03
2022-08-11T07:50:41.801Z,97396.38
2022-08-11T07:53:10.722Z,97395.22
2022-08-11T07:55:50.977Z,97401.41
2022-08-11T07:58:22.606Z,97392.88
2022-08-11T08:00:56.860Z,97395.63
2022-08-11T08:03:28.800Z,97391.72
2022-08-11T08:06:03.044Z,97387.69
2022-08-11T08:08:31.246Z,97390.03
2022-08-11T08:10:59.707Z,97384.66
2022-08-11T08:13:26.989Z,97397.78
2022-08-11T08:15:55.456Z,97385.81
2022-08-11T08:18:27.057Z,97380.72
2022-08-11T08:20:58.181Z,97387.03
2022-08-11T08:23:31.204Z,97389.06
2022-08-11T08:25:59.548Z,97386.94
2022-08-11T08:28:32.327Z,97388.16
2022-08-11T08:31:01.034Z,97381.84
2022-08-11T08:33:30.729Z,97391.38
2022-08-11T08:36:03.814Z,97385.31
2022-08-11T08:38:31.370Z,97384.84
2022-08-11T08:40:59.444Z,97391.44
2022-08-11T08:43:27.247Z,97392.31
2022-08-11T08:45:57.978Z,97384.28
2022-08-11T08:48:29.260Z,97385.47
2022-08-11T08:51:02.557Z,97377.88
2022-08-11T08:53:34.853Z,97381.19
2022-08-11T08:56:05.264Z,97377.72
2022-08-11T08:58:36.664Z,97371.84
2022-08-11T09:01:07.343Z,97371.31
2022-08-11T09:04:02.959Z,97366.53
2022-08-11T09:06:28.638Z,97361.31
2022-08-11T09:08:57.509Z,97363.19
2022-08-11T09:11:25.390Z,97349.41
2022-08-11T09:14:05.086Z,97351.91
2022-08-11T09:16:49.017Z,97343.63
2022-08-11T09:19:35.281Z,97352.59
2022-08-11T09:22:05.292Z,97354.81
2022-08-11T09:24:34.065Z,97355.34
2022-08-11T09:27:07.309Z,97351.72
2022-08-11T09:29:35.516Z,97351.41
2022-08-11T09:32:03.395Z,97352.91
2022-08-11T09:34:31.205Z,97350.09
2022-08-11T09:36:59.997Z,97339.50
2022-08-11T09:39:32.057Z,97343.47
2022-08-11T09:42:04.285Z,97337.84
2022-08-11T09:44:34.402Z,97339.38
2022-08-11T09:47:04.167Z,97335.88
2022-08-11T09:49:33.610Z,97331.56
2022-08-11T09:52:05.458Z,97321.59
2022-08-11T09:54:36.316Z,97319.28
2022-08-11T09:57:05.815Z,97317.63
2022-08-11T09:59:34.089Z,97313.63
2022-08-11T10:02:04.759Z,97320.25
2022-08-11T10:04:39.176Z,97315.41
2022-08-11T10:07:07.418Z,97309.25
2022-08-11T10:09:40.343Z,97310.06
2022-08-11T10:12:11.661Z,97307.06
2022-08-11T10:14:45.214Z,97304.06
2022-08-11T10:17:15.193Z,97293.91
2022-08-11T10:20:03.967Z,97289.91
2022-08-11T10:22:34.077Z,97293.84
2022-08-11T10:25:05.437Z,97294.78
2022-08-11T10:28:08.978Z,97281.44
2022-08-11T10:30:22.621Z,97279.72
2022-08-11T10:32:58.881Z,97281.88
2022-08-11T10:35:28.768Z,97274.19
2022-08-11T10:38:06.098Z,97272.03
2022-08-11T10:40:47.544Z,97273.13
2022-08-11T10:44:01.258Z,97264.16
2022-08-11T10:46:09.842Z,97253.63
2022-08-11T10:48:39.208Z,97262.41
2022-08-11T10:51:09.219Z,97257.28
2022-08-11T10:53:39.205Z,97262.69
2022-08-11T10:56:08.617Z,97260.44
2022-08-11T10:58:38.556Z,97253.72
2022-08-11T11:01:06.291Z,97254.94
2022-08-11T11:03:36.164Z,97254.13
2022-08-11T11:06:28.641Z,97248.06
2022-08-11T11:09:05.729Z,97253.50
2022-08-11T11:11:43.196Z,97251.94
2022-08-11T11:14:14.177Z,97246.38
2022-08-11T11:16:43.245Z,97242.63
2022-08-11T11:19:12.639Z,97233.06
2022-08-11T11:21:43.113Z,97241.00
2022-08-11T11:24:34.477Z,97236.38
2022-08-11T11:27:15.088Z,97240.34
2022-08-11T11:29:58.490Z,97235.56
2022-08-11T11:32:31.838Z,97240.78
2022-08-11T11:35:14.176Z,97241.97
2022-08-11T11:38:04.435Z,97243.38
2022-08-11T11:40:31.881Z,97237.22
2022-08-11T11:43:01.894Z,97233.72
2022-08-11T11:45:30.079Z,97228.91
2022-08-11T11:48:00.791Z,97224.50
2022-08-11T11:50:32.976Z,97232.50
2022-08-11T11:53:01.651Z,97227.91
2022-08-11T11:55:31.093Z,97214.66
2022-08-11T11:58:02.524Z,97221.69
2022-08-11T12:00:33.372Z,97224.09
2022-08-11T12:03:06.103Z,97216.44
2022-08-11T12:05:35.533Z,97218.56
2022-08-11T12:08:10.582Z,97211.09
2022-08-11T12:10:44.819Z,97207.25
2022-08-11T12:13:16.321Z,97203.59
2022-08-11T12:16:31.803Z,97206.38
2022-08-11T12:18:34.718Z,97195.75
2022-08-11T12:21:05.438Z,97189.09
2022-08-11T12:23:34.950Z,97188.75
2022-08-11T12:26:25.986Z,97170.91
2022-08-11T12:28:53.786Z,97183.84
2022-08-11T12:31:21.574Z,97173.97
2022-08-11T12:33:49.333Z,97167.63
2022-08-11T12:36:18.532Z,97168.94
2022-08-11T12:38:51.497Z,97168.75
2022-08-11T12:41:24.562Z,97165.91
2022-08-11T12:43:56.425Z,97165.09
2022-08-11T12:46:30.050Z,97167.00
2022-08-11T12:49:05.165Z,97153.03
2022-08-11T12:52:01.586Z,97146.63
2022-08-11T12:54:29.053Z,97150.16
2022-08-11T12:57:02.992Z,97149.78
2022-08-11T12:59:32.596Z,97151.44
2022-08-11T13:02:00.230Z,97144.25
2022-08-11T13:04:29.587Z,97140.09
2022-08-11T13:06:57.293Z,97142.53
2022-08-11T13:09:25.369Z,97137.75
2022-08-11T13:11:56.529Z,97137.91
2022-08-11T13:14:26.734Z,97131.69
2022-08-11T13:16:57.146Z,97127.72
2022-08-11T13:19:26.053Z,97126.09
2022-08-11T13:21:53.994Z,97127.09
2022-08-11T13:24:22.989Z,97122.75
2022-08-11T13:26:52.474Z,97122.81
2022-08-11T13:29:22.154Z,97114.56
2022-08-11T13:31:50.559Z,97123.63
2022-08-11T13:34:25.047Z,97105.25
2022-08-11T13:36:54.910Z,97111.03
2022-08-11T13:39:24.964Z,97109.03
2022-08-11T13:41:55.762Z,97101.81
2022-08-11T13:44:26.030Z,97104.25
2022-08-11T13:46:56.675Z,97097.66
2022-08-11T13:49:26.541Z,97102.59
2022-08-11T13:51:55.914Z,97108.53
2022-08-11T13:54:26.572Z,97098.84
2022-08-11T13:57:01.840Z,97101.09
2022-08-11T13:59:31.039Z,97099.81
2022-08-11T14:02:22.865Z,97092.69
2022-08-11T14:04:55.885Z,97100.31
2022-08-11T14:07:29.063Z,97093.13
2022-08-11T14:09:59.811Z,97098.47
2022-08-11T14:12:30.904Z,97079.38
2022-08-11T14:15:07.839Z,97087.56
2022-08-11T14:17:48.329Z,97078.06
2022-08-11T14:20:38.074Z,97074.69
2022-08-11T14:23:14.795Z,97078.63
2022-08-11T14:26:00.136Z,97066.13
2022-08-11T14:28:35.019Z,97069.09
2022-08-11T14:31:07.713Z,97060.09
2022-08-11T14:33:59.368Z,97053.75
2022-08-11T14:36:34.492Z,97059.31
2022-08-11T14:39:07.714Z,97057.03
2022-08-11T14:41:35.354Z,97054.22
2022-08-11T14:44:13.756Z,97059.78
2022-08-11T14:46:44.405Z,97063.69
2022-08-11T14:49:56.061Z,97063.34
2022-08-11T14:52:31.179Z,97055.13
2022-08-11T14:55:06.066Z,97063.53
2022-08-11T14:57:55.652Z,97060.47
2022-08-11T15:00:25.439Z,97052.63
2022-08-11T15:02:55.216Z,97048.50
2022-08-11T15:05:24.336Z,97055.03
2022-08-11T15:07:56.794Z,97049.31
2022-08-11T15:10:27.053Z,97045.81
2022-08-11T15:12:54.706Z,97043.94
2022-08-11T15:15:24.554Z,97045.75
2022-08-11T15:17:54.594Z,97040.41
2022-08-11T15:20:23.911Z,97047.38
2022-08-11T15:22:53.289Z,97046.75
2022-08-11T15:25:21.231Z,97037.66
2022-08-11T15:27:52.173Z,97048.31
2022-08-11T15:30:33.311Z,97049.28
2022-08-11T15:33:06.432Z,97044.25
2022-08-11T15:35:39.446Z,97042.56
2022-08-11T15:38:13.239Z,97039.69
2022-08-11T15:40:43.877Z,97037.59
2022-08-11T15:43:17.475Z,97043.28
2022-08-11T15:45:48.984Z,97034.63
2022-08-11T15:48:27.614Z,97038.25
2022-08-11T15:50:58.521Z,97032.25
2022-08-11T15:53:38.628Z,97039.59
2022-08-11T15:56:07.553Z,97040.66
2022-08-11T15:58:39.603Z,97032.19
2022-08-11T16:01:10.592Z,97027.59
2022-08-11T16:03:54.381Z,97027.19
2022-08-11T16:06:36.673Z,97034.97
2022-08-11T16:09:18.543Z,97031.50
2022-08-11T16:11:48.912Z,97026.94
2022-08-11T16:14:18.423Z,97026.66
2022-08-11T16:16:48.805Z,97029.72
2022-08-11T16:19:16.827Z,97019.00
2022-08-11T16:21:45.756Z,97024.91
2022-08-11T16:27:04.287Z,97022.63
2022-08-11T16:27:14.026Z,97017.00
2022-08-11T16:29:47.010Z,97032.34
2022-08-11T16:32:20.425Z,97024.72
2022-08-11T16:34:52.569Z,97027.34
2022-08-11T16:37:21.714Z,97029.19
2022-08-11T16:39:51.786Z,97020.47
2022-08-11T16:43:04.462Z,97032.31
2022-08-11T16:45:16.568Z,97037.44
2022-08-11T16:50:33.788Z,97027.66
2022-08-11T16:53:01.275Z,97030.69
2022-08-11T16:55:51.662Z,97024.38
2022-08-11T16:58:20.335Z,97025.94
2022-08-11T17:00:51.973Z,97030.09
2022-08-11T17:03:21.999Z,97034.78
2022-08-11T17:05:55.019Z,97030.03
2022-08-11T17:08:29.928Z,97034.25
2022-08-11T17:11:04.107Z,97037.47
2022-08-11T17:13:37.368Z,97030.41
2022-08-11T17:16:08.364Z,97035.22
2022-08-11T17:18:44.097Z,97041.56
2022-08-11T17:21:23.337Z,97037.25
2022-08-11T17:23:53.493Z,97029.28
2022-08-11T17:26:27.251Z,97030.63
2022-08-11T17:28:59.962Z,97024.69
2022-08-11T17:31:29.774Z,97030.56
2022-08-11T17:33:59.095Z,97028.72
2022-08-11T17:36:27.066Z,97025.78
2022-08-11T17:38:54.743Z,97030.84
2022-08-11T17:41:24.031Z,97033.50
2022-08-11T17:43:53.600Z,97037.97
2022-08-11T17:46:21.887Z,97020.38
2022-08-11T17:48:50.228Z,97040.16
2022-08-11T17:51:20.268Z,97043.81
2022-08-11T17:54:18.049Z,97041.91
2022-08-11T17:56:37.941Z,97053.06
2022-08-11T17:59:07.749Z,97048.84
2022-08-11T18:01:37.436Z,97057.06
2022-08-11T18:04:11.242Z,97061.81
2022-08-11T18:06:40.148Z,97052.19
2022-08-11T18:09:10.652Z,97053.72
2022-08-11T18:12:06.882Z,97055.72
2022-08-11T18:14:29.721Z,97052.94
2022-08-11T18:16:57.225Z,97059.97
2022-08-11T18:19:24.848Z,97065.00
2022-08-11T18:22:07.840Z,97072.34
2022-08-11T18:24:53.008Z,97074.19
2022-08-11T18:27:31.947Z,97086.31
2022-08-11T18:30:03.405Z,97075.22
2022-08-11T18:32:49.069Z,97073.28
2022-08-11T18:35:20.436Z,97076.09
2022-08-11T18:37:50.612Z,97069.81
2022-08-11T18:40:22.670Z,97080.28
2022-08-11T18:42:55.548Z,97081.13
2022-08-11T18:45:25.673Z,97083.38
2022-08-11T18:48:00.365Z,97088.56
2022-08-11T18:50:39.463Z,97082.81
2022-08-11T18:53:10.883Z,97092.78
2022-08-11T18:55:38.152Z,97080.66
2022-08-11T18:58:10.902Z,97089.63
2022-08-11T19:00:40.621Z,97092.09
2022-08-11T19:03:10.670Z,97091.63
2022-08-11T19:06:35.889Z,97093.63
2022-08-11T19:08:30.590Z,97096.28
2022-08-11T19:10:58.577Z,97091.97
2022-08-11T19:13:29.330Z,97102.09
2022-08-11T19:15:57.571Z,97098.78
2022-08-11T19:18:26.127Z,97094.63
2022-08-11T19:20:55.553Z,97092.66
2022-08-11T19:23:34.865Z,97094.19
2022-08-11T19:26:04.903Z,97102.63
2022-08-11T19:28:35.836Z,97106.63
2022-08-11T19:31:03.695Z,97095.22
2022-08-11T19:33:51.210Z,97098.06
2022-08-11T19:36:20.336Z,97104.03
2022-08-11T19:38:50.036Z,97099.59
2022-08-11T19:41:51.827Z,97107.38
2022-08-11T19:44:11.466Z,97111.00
2022-08-11T19:46:43.269Z,97112.19
2022-08-11T19:49:12.733Z,97120.13
2022-08-11T19:51:44.189Z,97115.50
2022-08-11T19:54:13.749Z,97111.53
2022-08-11T19:56:42.384Z,97117.97
2022-08-11T19:59:13.898Z,97116.50
2022-08-11T20:02:13.024Z,97115.53
2022-08-11T20:04:29.435Z,97122.97
2022-08-11T20:06:58.593Z,97113.19
2022-08-11T20:09:27.357Z,97101.59
2022-08-11T20:12:15.516Z,97111.19
2022-08-11T20:14:49.120Z,97110.34
2022-08-11T20:17:18.081Z,97111.84
2022-08-11T20:19:55.301Z,97118.63
2022-08-11T20:22:26.920Z,97116.84
2022-08-11T20:24:56.569Z,97114.50
2022-08-11T20:27:25.402Z,97109.34
2022-08-11T20:29:59.424Z,97104.41
2022-08-11T20:32:27.738Z,97108.38
2022-08-11T20:34:58.785Z,97109.19
2022-08-11T20:37:27.236Z,97123.75
2022-08-11T20:39:56.721Z,97121.28
2022-08-11T20:42:30.151Z,97123.09
2022-08-11T20:45:01.800Z,97126.06
2022-08-11T20:47:30.037Z,97132.88
2022-08-11T20:49:58.897Z,97124.94
2022-08-11T20:52:29.429Z,97121.94
2022-08-11T20:54:59.650Z,97124.94
2022-08-11T20:57:54.377Z,97134.66
2022-08-11T21:00:39.574Z,97132.03
2022-08-11T21:03:06.730Z,97131.38
2022-08-11T21:06:09.452Z,97142.44
2022-08-11T21:08:29.910Z,97137.16
2022-08-11T21:11:01.327Z,97136.81
2022-08-11T21:13:40.043Z,97134.00
2022-08-11T21:16:16.488Z,97136.50
2022-08-11T21:18:59.741Z,97127.56
2022-08-11T21:21:45.711Z,97134.84
2022-08-11T21:24:16.816Z,97133.69
2022-08-11T21:27:25.024Z,97134.50
2022-08-11T21:30:04.350Z,97124.75
2022-08-11T21:32:55.175Z,97132.03
2022-08-11T21:35:31.971Z,97145.09
2022-08-11T21:40:46.608Z,97134.19
2022-08-11T21:43:15.636Z,97131.03
2022-08-11T21:45:47.762Z,97140.28
2022-08-11T21:48:23.478Z,97149.34
2022-08-11T21:50:56.679Z,97147.84
2022-08-11T21:53:34.480Z,97147.34
2022-08-11T21:56:04.160Z,97139.47
2022-08-11T21:58:32.766Z,97140.75
2022-08-11T22:01:00.632Z,97148.81
2022-08-11T22:03:41.074Z,97140.06
2022-08-11T22:06:17.956Z,97146.34
2022-08-11T22:08:50.432Z,97141.88
2022-08-11T22:11:31.802Z,97141.72
2022-08-11T22:14:06.215Z,97135.28
2022-08-11T22:16:35.991Z,97139.72
2022-08-11T22:19:07.089Z,97136.03
2022-08-11T22:22:03.989Z,97130.88
2022-08-11T22:24:30.097Z,97141.72
2022-08-11T22:26:59.369Z,97134.56
2022-08-11T22:29:42.339Z,97132.06
2022-08-11T22:32:17.495Z,97131.44
2022-08-11T22:34:53.024Z,97133.13
2022-08-11T22:37:27.338Z,97128.66
2022-08-11T22:40:01.682Z,97121.25
2022-08-11T22:42:33.650Z,97136.09
2022-08-11T22:45:01.627Z,97135.13
2022-08-11T22:47:36.395Z,97134.31
2022-08-11T22:50:12.592Z,97125.69
2022-08-11T22:52:41.646Z,97126.53
2022-08-11T22:55:10.493Z,97120.88
2022-08-11T22:57:39.966Z,97118.53
2022-08-11T23:00:08.530Z,97108.59
2022-08-11T23:02:36.245Z,97119.56
2022-08-11T23:05:14.991Z,97122.97
2022-08-11T23:07:50.948Z,97112.69
2022-08-11T23:10:20.193Z,97113.66
2022-08-11T23:12:47.655Z,97124.38
2022-08-11T23:15:15.337Z,97118.56
2022-08-11T23:17:44.079Z,97126.66
2022-08-11T23:20:36.243Z,97114.72
2022-08-11T23:23:03.888Z,97111.13
2022-08-11T23:25:31.705Z,97111.72
2022-08-11T23:28:02.048Z,97108.41
2022-08-11T23:30:31.235Z,97109.69
2022-08-11T23:33:01.590Z,97113.47
2022-08-11T23:35:38.679Z,97104.34
2022-08-11T23:38:09.072Z,97115.69
2022-08-11T23:40:38.396Z,97105.03
2022-08-11T23:43:06.855Z,97100.06
2022-08-11T23:45:37.182Z,97099.53
2022-08-11T23:48:07.102Z,97111.75
2022-08-11T23:50:36.538Z,97096.91
2022-08-11T23:53:05.135Z,97097.88
2022-08-11T23:55:32.778Z,97092.44
2022-08-11T23:58:00.305Z,97091.25
